Time;durP1;ratioP1;P1;durP2;ratioP2;P2;SDS_P1;SDS_P2;PMS_P1;PMS_P2;Temp;Humidity;BMP_temperature;BMP_pressure;BME280_temperature;BME280_humidity;BME280_pressure;Samples;Min_cycle;Max_cycle;Signal;HPM_P1;HPM_P2
2024/01/23 00:01:19;;;;;;;19.42;3.47;;;31.60;1.00;;;;;;5051592;28;20512;-70
2024/01/23 00:03:44;;;;;;;18.98;3.38;;;31.70;1.00;;;;;;5051311;28;20080;-70
2024/01/23 00:06:10;;;;;;;22.50;4.85;;;32.00;1.00;;;;;;5050703;28;20416;-70
2024/01/23 00:08:36;;;;;;;25.58;4.03;;;;;;;;;;5051096;28;20048;-70
2024/01/23 00:11:02;;;;;;;32.88;4.32;;;;;;;;;;5051134;28;20052;-70
2024/01/23 00:13:28;;;;;;;24.80;4.07;;;;;;;;;;5050984;28;20656;-70
2024/01/23 00:15:54;;;;;;;19.88;4.18;;;;;;;;;;5050804;28;20051;-70
2024/01/23 00:18:20;;;;;;;28.42;4.15;;;;;;;;;;5050794;28;20515;-70
2024/01/23 00:20:47;;;;;;;16.23;3.10;;;31.80;1.00;;;;;;5050939;28;20095;-71
2024/01/23 00:23:13;;;;;;;22.08;3.65;;;31.90;1.00;;;;;;5050959;28;20049;-70
2024/01/23 00:25:38;;;;;;;20.77;4.00;;;31.70;1.00;;;;;;5050417;28;20477;-70
2024/01/23 00:28:06;;;;;;;21.17;4.63;;;;;;;;;;5034525;28;20091;-70
2024/01/23 00:30:32;;;;;;;28.90;4.50;;;;;;;;;;5034488;28;20076;-70
2024/01/23 00:32:59;;;;;;;21.05;5.45;;;;;;;;;;5034723;28;20037;-70
2024/01/23 00:35:25;;;;;;;20.02;4.25;;;;;;;;;;5050713;28;20041;-70
2024/01/23 00:37:51;;;;;;;19.88;4.93;;;;;;;;;;5050024;28;20500;-69
2024/01/23 00:40:16;;;;;;;21.70;3.75;;;31.70;1.00;;;;;;5050791;28;20053;-69
2024/01/23 00:42:42;;;;;;;23.83;4.50;;;;;;;;;;5049397;28;20077;-70
2024/01/23 00:45:08;;;;;;;17.35;3.30;;;;;;;;;;5050328;28;20413;-70
2024/01/23 00:47:34;;;;;;;22.88;5.25;;;;;;;;;;5049781;28;20048;-69
2024/01/23 00:50:00;;;;;;;22.50;3.70;;;;;;;;;;5050267;28;20037;-69
2024/01/23 00:52:26;;;;;;;26.85;5.47;;;31.80;1.00;;;;;;5050249;28;20130;-69
2024/01/23 00:54:52;;;;;;;13.57;3.45;;;;;;;;;;5050365;28;20411;-69
2024/01/23 00:57:18;;;;;;;26.95;5.18;;;;;;;;;;5049625;28;20099;-70
2024/01/23 00:59:43;;;;;;;17.92;4.15;;;31.80;1.00;;;;;;5033673;28;20127;-70
2024/01/23 01:02:09;;;;;;;14.07;4.32;;;31.60;1.00;;;;;;5050533;28;20041;-69
2024/01/23 01:04:35;;;;;;;27.38;4.10;;;;;;;;;;5033880;28;20044;-70
2024/01/23 01:07:00;;;;;;;20.58;4.20;;;31.70;1.00;;;;;;5033203;28;20041;-70
2024/01/23 01:09:26;;;;;;;29.73;5.18;;;;;;;;;;5033524;28;20041;-70
2024/01/23 01:11:52;;;;;;;24.25;3.50;;;;;;;;;;5050418;28;20189;-70
2024/01/23 01:14:18;;;;;;;25.05;4.82;;;;;;;;;;5050205;28;20073;-69
2024/01/23 01:16:44;;;;;;;18.77;3.65;;;;;;;;;;5033156;28;20044;-70
2024/01/23 01:19:10;;;;;;;15.45;4.18;;;;;;;;;;5050413;28;20103;-69
2024/01/23 01:21:37;;;;;;;15.60;4.15;;;;;;;;;;5050316;28;20045;-70
2024/01/23 01:24:03;;;;;;;19.90;3.80;;;31.90;1.00;;;;;;5050075;28;20741;-70
2024/01/23 01:26:28;;;;;;;20.63;4.78;;;31.80;1.00;;;;;;5049614;28;20132;-70
2024/01/23 01:28:54;;;;;;;20.30;3.90;;;31.90;1.00;;;;;;5033577;28;20052;-69
2024/01/23 01:31:20;;;;;;;19.95;4.50;;;;;;;;;;5033651;28;20489;-69
2024/01/23 01:33:45;;;;;;;21.60;4.63;;;;;;;;;;5050008;28;20045;-70
2024/01/23 01:36:11;;;;;;;26.50;4.72;;;;;;;;;;5049875;28;20052;-70
2024/01/23 01:38:37;;;;;;;25.80;5.40;;;;;;;;;;5049848;28;20080;-70
2024/01/23 01:41:03;;;;;;;21.83;4.28;;;31.60;1.00;;;;;;5050383;28;20132;-69
2024/01/23 01:43:31;;;;;;;24.27;4.60;;;31.70;1.00;;;;;;5049950;28;20040;-69
2024/01/23 01:46:20;;;;;;;21.25;5.80;;;31.80;1.00;;;;;;5049535;28;20124;-69
2024/01/23 01:48:47;;;;;;;37.83;6.80;;;31.60;1.00;;;;;;5050081;28;20626;-70
2024/01/23 01:51:13;;;;;;;19.67;4.15;;;;;;;;;;5033329;28;20489;-69
2024/01/23 01:53:40;;;;;;;25.00;4.25;;;31.60;1.00;;;;;;5033366;28;20079;-70
2024/01/23 01:56:07;;;;;;;22.10;4.82;;;31.60;1.00;;;;;;5049120;28;20041;-69
2024/01/23 01:58:34;;;;;;;26.77;4.35;;;31.70;1.00;;;;;;5049793;28;20041;-70
2024/01/23 02:01:00;;;;;;;29.48;4.78;;;31.80;1.00;;;;;;5049963;28;20523;-69
2024/01/23 02:03:27;;;;;;;26.23;5.43;;;31.80;1.00;;;;;;5052720;28;20408;-69
2024/01/23 02:05:53;;;;;;;20.48;5.28;;;31.70;1.00;;;;;;5053111;28;20049;-69
2024/01/23 02:08:20;;;;;;;29.58;5.00;;;31.90;1.00;;;;;;5053436;28;20523;-70
2024/01/23 02:10:45;;;;;;;22.58;4.50;;;31.80;1.00;;;;;;5053691;28;20037;-69
2024/01/23 02:13:11;;;;;;;21.20;4.30;;;31.70;1.00;;;;;;5053794;28;20048;-69
2024/01/23 02:15:36;;;;;;;18.48;4.55;;;31.60;1.00;;;;;;5052854;28;20103;-69
2024/01/23 02:18:02;;;;;;;22.83;4.20;;;31.60;1.00;;;;;;5053401;28;20097;-69
2024/01/23 02:20:28;;;;;;;23.55;4.85;;;31.70;1.00;;;;;;5036748;28;20052;-69
2024/01/23 02:22:54;;;;;;;27.83;4.72;;;31.70;1.00;;;;;;5036786;28;20037;-69
2024/01/23 02:25:20;;;;;;;26.90;4.22;;;31.60;1.00;;;;;;5053458;28;20043;-69
2024/01/23 02:27:47;;;;;;;28.23;5.45;;;;;;;;;;5035948;28;20036;-69
2024/01/23 02:30:16;;;;;;;30.85;5.65;;;;;;;;;;5053389;28;20040;-70
2024/01/23 02:32:53;;;;;;;35.80;5.82;;;;;;;;;;5053402;28;20684;-70
2024/01/23 02:35:22;;;;;;;32.83;5.35;;;;;;;;;;5036802;28;20037;-70
2024/01/23 02:37:52;;;;;;;33.88;5.38;;;;;;;;;;5052481;28;20044;-69
2024/01/23 02:40:22;;;;;;;30.67;4.82;;;;;;;;;;5053354;28;20041;-69
2024/01/23 02:42:48;;;;;;;26.00;5.18;;;;;;;;;;5053209;28;20041;-70
2024/01/23 02:45:19;;;;;;;24.05;4.22;;;;;;;;;;5053013;28;20037;-70
2024/01/23 02:47:51;;;;;;;27.15;4.70;;;;;;;;;;5052514;28;20562;-70
2024/01/23 02:50:17;;;;;;;30.05;5.00;;;;;;;;;;5054354;28;20509;-69
2024/01/23 02:52:43;;;;;;;28.88;5.38;;;;;;;;;;5053030;28;20056;-70
2024/01/23 02:55:16;;;;;;;24.83;4.80;;;;;;;;;;5052805;28;20045;-70
2024/01/23 02:57:41;;;;;;;22.23;4.50;;;;;;;;;;5053265;28;20036;-70
2024/01/23 03:00:13;;;;;;;25.65;4.97;;;;;;;;;;5052659;28;20095;-69
2024/01/23 03:02:39;;;;;;;30.05;5.35;;;;;;;;;;5054061;28;20033;-69
2024/01/23 03:05:08;;;;;;;26.45;4.75;;;;;;;;;;5053984;28;20674;-69
2024/01/23 03:07:42;;;;;;;24.73;4.93;;;;;;;;;;5051828;28;20049;-70
2024/01/23 03:10:08;;;;;;;22.42;3.92;;;;;;;;;;5053749;28;20037;-69
2024/01/23 03:12:34;;;;;;;30.23;6.18;;;;;;;;;;5053667;28;20037;-70
2024/01/23 03:15:02;;;;;;;29.90;5.55;;;;;;;;;;5052169;28;20059;-69
2024/01/23 03:17:28;;;;;;;33.72;6.20;;;;;;;;;;5051904;28;20047;-70
2024/01/23 03:19:54;;;;;;;18.98;5.45;;;;;;;;;;5053756;28;20049;-70
2024/01/23 03:22:20;;;;;;;27.80;4.75;;;;;;;;;;5052301;28;20044;-72
2024/01/23 03:24:46;;;;;;;21.52;5.05;;;;;;;;;;5052481;28;20079;-72
2024/01/23 03:27:14;;;;;;;25.23;4.70;;;;;;;;;;5051437;28;20123;-72
2024/01/23 03:29:41;;;;;;;29.40;5.70;;;;;;;;;;5052287;28;20500;-72
2024/01/23 03:32:07;;;;;;;27.83;5.38;;;;;;;;;;5035311;28;20041;-72
2024/01/23 03:34:35;;;;;;;27.20;4.80;;;;;;;;;;5052184;28;20041;-72
2024/01/23 03:37:09;;;;;;;29.95;5.95;;;;;;;;;;5051466;28;20124;-72
2024/01/23 03:39:35;;;;;;;24.35;4.43;;;;;;;;;;5053105;28;20652;-72
2024/01/23 03:42:02;;;;;;;29.13;4.82;;;;;;;;;;5051929;28;20041;-72
2024/01/23 03:44:32;;;;;;;33.97;6.38;;;;;;;;;;5035030;28;20128;-72
2024/01/23 03:46:58;;;;;;;28.67;5.60;;;;;;;;;;5034618;28;20037;-70
2024/01/23 03:49:27;;;;;;;23.58;5.20;;;;;;;;;;5051606;28;20041;-70
2024/01/23 03:51:57;;;;;;;32.22;5.95;;;;;;;;;;5051754;28;20041;-70
2024/01/23 03:54:23;;;;;;;27.73;5.85;;;;;;;;;;5051616;28;20106;-70
2024/01/23 03:56:53;;;;;;;30.23;5.18;;;;;;;;;;5051380;28;20059;-70
2024/01/23 03:59:22;;;;;;;24.80;4.85;;;;;;;;;;5034891;28;20045;-70
2024/01/23 04:01:50;;;;;;;29.35;5.80;;;;;;;;;;5035045;28;20416;-70
2024/01/23 04:04:16;;;;;;;26.52;5.68;;;;;;;;;;5051008;28;20036;-70
2024/01/23 04:06:42;;;;;;;35.75;5.95;;;;;;;;;;5050569;28;20051;-70
2024/01/23 04:09:13;;;;;;;25.05;6.55;;;;;;;;;;5034826;28;20044;-70
2024/01/23 04:11:40;;;;;;;26.40;5.65;;;;;;;;;;5052465;28;20037;-70
2024/01/23 04:14:06;;;;;;;26.15;4.72;;;;;;;;;;5034689;28;20133;-70
2024/01/23 04:16:40;;;;;;;34.13;7.22;;;;;;;;;;5051922;28;20124;-70
2024/01/23 04:19:08;;;;;;;34.38;5.28;;;;;;;;;;5051068;28;20045;-70
2024/01/23 04:21:34;;;;;;;30.15;5.85;;;;;;;;;;5052529;28;20045;-70
2024/01/23 04:24:00;;;;;;;32.03;6.32;;;;;;;;;;5051046;28;20041;-70
2024/01/23 04:26:28;;;;;;;30.38;5.22;;;;;;;;;;5049773;28;20397;-70
2024/01/23 04:29:00;;;;;;;27.95;4.95;;;;;;;;;;5051191;28;20106;-70
2024/01/23 04:31:30;;;;;;;31.80;5.07;;;;;;;;;;5052313;28;20099;-70
2024/01/23 04:33:56;;;;;;;24.58;5.20;;;;;;;;;;5051049;28;20382;-70
2024/01/23 04:36:28;;;;;;;32.88;5.72;;;;;;;;;;5033690;28;20091;-70
2024/01/23 04:39:00;;;;;;;22.70;5.10;;;;;;;;;;5050766;28;20102;-70
2024/01/23 04:41:29;;;;;;;35.35;6.25;;;;;;;;;;5052217;28;20068;-70
2024/01/23 04:43:56;;;;;;;36.35;6.03;;;;;;;;;;5050657;28;20122;-70
2024/01/23 04:46:23;;;;;;;41.05;6.32;;;;;;;;;;5050087;28;20040;-70
2024/01/23 04:48:49;;;;;;;33.47;6.68;;;;;;;;;;5050266;28;20049;-70
2024/01/23 04:51:17;;;;;;;42.55;8.15;;;;;;;;;;5050516;28;20132;-70
2024/01/23 04:53:43;;;;;;;37.13;5.85;;;;;;;;;;5050533;28;20098;-70
2024/01/23 04:56:16;;;;;;;38.90;7.50;;;;;;;;;;5049951;28;20079;-70
2024/01/23 04:58:42;;;;;;;;;;;;;;;;;;5052120;28;20041;-70
2024/01/23 05:01:08;;;;;;;40.70;8.85;;;;;;;;;;5051910;28;19923;-70
2024/01/23 05:03:34;;;;;;;45.60;6.70;;;;;;;;;;5033801;28;20493;-70
2024/01/23 05:06:03;;;;;;;44.10;6.65;;;;;;;;;;5049879;28;20052;-70
2024/01/23 05:08:32;;;;;;;31.95;6.63;;;;;;;;;;5033736;28;20045;-71
2024/01/23 05:10:58;;;;;;;42.28;6.72;;;;;;;;;;5050511;28;20041;-70
2024/01/23 05:13:24;;;;;;;27.52;7.65;;;;;;;;;;5050383;28;20037;-70
2024/01/23 05:15:58;;;;;;;34.67;6.32;;;;;;;;;;5033330;28;20087;-70
2024/01/23 05:18:29;;;;;;;32.83;5.47;;;;;;;;;;5051677;28;20052;-69
2024/01/23 05:20:58;;;;;;;32.38;6.75;;;;;;;;;;5033866;28;20045;-70
2024/01/23 05:23:26;;;;;;;31.00;6.47;;;;;;;;;;5050216;28;20041;-70
2024/01/23 05:25:52;;;;;;;30.42;6.75;;;;;;;;;;5033155;28;20052;-70
2024/01/23 05:28:18;;;;;;;31.45;5.53;;;;;;;;;;5050075;28;20033;-70
2024/01/23 05:30:44;;;;;;;34.65;7.55;;;;;;;;;;5033699;28;20511;-69
2024/01/23 05:33:10;;;;;;;45.00;6.55;;;;;;;;;;5033414;28;20047;-70
2024/01/23 05:35:36;;;;;;;38.15;6.75;;;;;;;;;;5033582;28;20468;-70
2024/01/23 05:38:02;;;;;;;21.55;5.03;;;;;;;;;;5054021;28;20033;-70
2024/01/23 05:40:32;;;;;;;36.65;7.03;;;;;;;;;;5054112;28;20063;-70
2024/01/23 05:42:58;;;;;;;42.55;5.93;;;;;;;;;;5054443;28;20447;-70
2024/01/23 05:45:24;;;;;;;28.48;6.53;;;;;;;;;;5054040;28;20102;-70
2024/01/23 05:47:50;;;;;;;30.60;5.82;;;;;;;;;;5053078;28;20083;-70
2024/01/23 05:50:16;;;;;;;36.33;6.15;;;;;;;;;;5053917;28;20049;-70
2024/01/23 05:52:43;;;;;;;35.33;6.60;;;;;;;;;;5054142;28;20043;-70
2024/01/23 05:55:09;;;;;;;32.90;6.75;;;;;;;;;;5037317;28;20044;-69
2024/01/23 05:57:35;;;;;;;38.60;7.25;;;;;;;;;;5053326;28;20036;-70
2024/01/23 06:00:05;;;;;;;38.72;6.75;;;;;;;;;;5054023;28;20041;-70
2024/01/23 06:02:31;;;;;;;47.10;7.60;;;;;;;;;;5053977;28;20083;-70
2024/01/23 06:04:58;;;;;;;34.80;6.40;;;;;;;;;;5037255;28;20037;-70
2024/01/23 06:07:24;;;;;;;40.70;8.55;;;;;;;;;;5036374;28;20036;-72
2024/01/23 06:09:52;;;;;;;30.30;6.93;;;;;;;;;;5037156;28;20119;-72
2024/01/23 06:12:18;;;;;;;32.40;7.75;;;;;;;;;;5053896;28;20052;-72
2024/01/23 06:14:46;;;;;;;37.53;6.63;;;;;;;;;;5053617;28;20534;-72
2024/01/23 06:17:15;;;;;;;33.17;7.75;;;;;;;;;;5052802;28;20095;-72
2024/01/23 06:19:43;;;;;;;30.83;7.32;;;;;;;;;;5053504;28;20041;-72
2024/01/23 06:22:09;;;;;;;36.97;6.97;;;;;;;;;;5053231;28;20087;-72
2024/01/23 06:24:35;;;;;;;50.85;9.73;;;;;;;;;;5053470;28;20076;-72
2024/01/23 06:27:01;;;;;;;38.35;6.90;;;;;;;;;;5052798;28;20098;-72
2024/01/23 06:29:27;;;;;;;39.53;6.60;;;;;;;;;;5053213;28;20040;-72
2024/01/23 06:31:53;;;;;;;43.13;7.53;;;;;;;;;;5053163;28;20527;-72
2024/01/23 06:34:21;;;;;;;34.33;6.95;;;;;;;;;;5059531;22;20106;-72
2024/01/23 06:36:47;;;;;;;52.22;9.13;;;;;;;;;;5052480;28;20166;-72
2024/01/23 06:39:14;;;;;;;37.03;7.55;;;;;;;;;;5036281;28;20119;-72
2024/01/23 06:41:39;;;;;;;44.72;6.72;;;;;;;;;;5053368;28;20471;-72
2024/01/23 06:44:05;;;;;;;39.95;7.22;;;;;;;;;;5052997;28;20041;-72
2024/01/23 06:46:31;;;;;;;31.10;6.72;;;;;;;;;;5052700;28;20068;-72
2024/01/23 06:48:57;;;;;;;45.90;7.38;;;;;;;;;;5052438;28;20072;-72
2024/01/23 06:51:23;;;;;;;40.60;8.07;;;;;;;;;;5052861;28;20041;-73
2024/01/23 06:53:57;;;;;;;29.70;5.63;;;;;;;;;;5038604;28;20041;-72
2024/01/23 06:56:23;;;;;;;;;;;;;;;;;;5052872;28;20132;-72
2024/01/23 06:58:49;;;;;;;30.73;5.93;;;;;;;;;;5046605;28;20019;-72
2024/01/23 07:01:15;;;;;;;41.55;6.20;;;;;;;;;;5033368;28;20045;-69
2024/01/23 07:03:41;;;;;;;44.65;8.20;;;;;;;;;;5049812;28;20045;-70
2024/01/23 07:06:07;;;;;;;36.70;7.50;;;;;;;;;;5048788;28;20045;-75
2024/01/23 07:08:33;;;;;;;45.38;8.80;;;;;;;;;;5049724;28;20040;-72
2024/01/23 07:10:59;;;;;;;39.50;7.13;;;;;;;;;;5049126;28;20037;-71
2024/01/23 07:13:25;;;;;;;42.20;7.90;;;;;;;;;;5049440;28;20040;-72
2024/01/23 07:15:51;;;;;;;42.72;8.43;;;;;;;;;;5048875;28;20551;-72
2024/01/23 07:18:17;;;;;;;48.05;6.78;;;;;;;;;;5049564;28;20033;-73
2024/01/23 07:20:43;;;;;;;38.33;8.27;;;;;;;;;;5049147;28;20040;-74
2024/01/23 07:23:09;;;;;;;38.47;7.15;;;;;;;;;;5049336;28;20052;-72
2024/01/23 07:25:35;;;;;;;40.42;8.02;;;;;;;;;;5048753;28;20040;-72
2024/01/23 07:28:01;;;;;;;42.75;7.32;;;;;;;;;;5048889;28;20048;-71
2024/01/23 07:30:27;;;;;;;34.83;6.03;;;;;;;;;;5048940;28;20076;-72
2024/01/23 07:32:53;;;;;;;48.30;7.80;;;;;;;;;;5032564;28;20067;-72
2024/01/23 07:35:19;;;;;;;38.45;6.88;;;;;;;;;;5049530;28;20119;-73
2024/01/23 07:37:45;;;;;;;39.33;7.70;;;;;;;;;;5049247;28;20041;-73
2024/01/23 07:40:11;;;;;;;41.53;7.30;;;;;;;;;;5051401;28;20037;-72
2024/01/23 07:42:37;;;;;;;39.15;8.23;;;;;;;;;;5051053;28;20040;-72
2024/01/23 07:45:05;;;;;;;37.90;6.28;;;;;;;;;;5049121;28;20056;-72
2024/01/23 07:47:30;;;;;;;39.00;7.03;;;31.80;1.00;;;;;;5050730;28;20116;-73
2024/01/23 07:49:56;;;;;;;41.45;7.22;;;32.00;1.00;;;;;;5050550;28;20203;-73
2024/01/23 07:52:22;;;;;;;40.92;6.40;;;31.80;1.00;;;;;;5051694;28;20538;-73
2024/01/23 07:54:48;;;;;;;43.33;7.25;;;31.90;1.00;;;;;;5051928;28;20048;-73
2024/01/23 07:57:14;;;;;;;32.85;6.00;;;;;;;;;;5051047;28;20073;-73
2024/01/23 07:59:40;;;;;;;35.75;5.78;;;;;;;;;;5050727;28;20124;-73
2024/01/23 08:02:06;;;;;;;47.40;7.10;;;;;;;;;;5051692;28;20159;-73
2024/01/23 08:04:32;;;;;;;41.17;7.32;;;31.80;1.00;;;;;;5051261;28;20049;-73
2024/01/23 08:06:58;;;;;;;37.05;7.57;;;;;;;;;;5050878;28;20086;-72
2024/01/23 08:09:24;;;;;;;40.63;6.97;;;;;;;;;;5033747;28;20095;-73
2024/01/23 08:11:52;;;;;;;39.05;7.18;;;;;;;;;;5050742;28;20037;-72
2024/01/23 08:14:18;;;;;;;53.35;7.68;;;;;;;;;;5050800;28;20116;-73
2024/01/23 08:16:44;;;;;;;29.65;6.28;;;31.80;1.00;;;;;;5050131;28;20147;-73
2024/01/23 08:19:10;;;;;;;31.83;8.80;;;31.70;1.00;;;;;;5050533;28;20131;-73
2024/01/23 08:21:36;;;;;;;37.58;7.90;;;;;;;;;;5050696;28;20113;-74
2024/01/23 08:24:02;;;;;;;41.95;7.70;;;;;;;;;;5050663;28;20059;-72
2024/01/23 08:26:28;;;;;;;37.28;7.10;;;;;;;;;;5050313;28;20574;-73
2024/01/23 08:28:56;;;;;;;44.22;7.35;;;31.90;1.00;;;;;;5051011;28;20049;-73
2024/01/23 08:31:22;;;;;;;48.10;8.90;;;;;;;;;;5050839;28;20045;-73
2024/01/23 08:33:48;;;;;;;41.60;7.88;;;31.90;1.00;;;;;;5051008;28;20408;-73
2024/01/23 08:36:14;;;;;;;39.22;7.10;;;;;;;;;;5050404;28;20083;-73
2024/01/23 08:38:41;;;;;;;41.78;6.57;;;;;;;;;;5052016;28;20041;-73
2024/01/23 08:41:07;;;;;;;36.78;7.07;;;31.90;1.00;;;;;;5050857;28;20083;-73
2024/01/23 08:43:33;;;;;;;25.52;5.82;;;;;;;;;;5034214;28;20045;-74
2024/01/23 08:45:59;;;;;;;43.03;7.38;;;;;;;;;;5050120;28;20094;-73
2024/01/23 08:48:25;;;;;;;31.67;6.78;;;31.70;1.00;;;;;;5050547;28;20048;-72
2024/01/23 08:50:51;;;;;;;42.33;6.25;;;;;;;;;;5050243;28;20037;-72
2024/01/23 08:53:17;;;;;;;41.60;8.20;;;32.00;1.00;;;;;;5033509;28;20037;-72
2024/01/23 08:55:44;;;;;;;46.17;7.28;;;31.80;1.00;;;;;;5049531;28;20025;-72
2024/01/23 08:58:10;;;;;;;43.63;8.25;;;;;;;;;;5049916;28;20048;-74
2024/01/23 09:00:36;;;;;;;41.03;7.93;;;;;;;;;;5050208;28;20472;-72
2024/01/23 09:03:02;;;;;;;38.55;6.43;;;;;;;;;;5044944;28;20118;-73
2024/01/23 09:05:28;;;;;;;35.30;6.55;;;;;;;;;;5047422;28;20095;-72
2024/01/23 09:07:54;;;;;;;43.92;7.30;;;;;;;;;;5046757;28;20421;-71
2024/01/23 09:10:20;;;;;;;46.78;7.65;;;;;;;;;;5030520;28;20043;-72
2024/01/23 09:12:45;;;;;;;30.55;5.85;;;31.90;1.00;;;;;;5046990;28;20688;-72
2024/01/23 09:15:11;;;;;;;32.00;7.32;;;;;;;;;;5026472;28;20164;-73
2024/01/23 09:17:37;;;;;;;36.30;6.95;;;;;;;;;;5046635;28;20039;-72
2024/01/23 09:20:06;;;;;;;40.20;6.80;;;;;;;;;;5047264;28;20033;-70
2024/01/23 09:22:32;;;;;;;44.33;7.20;;;;;;;;;;5049208;28;20423;-70
2024/01/23 09:25:03;;;;;;;35.25;6.78;;;;;;;;;;5048376;28;20033;-70
2024/01/23 09:27:29;;;;;;;42.05;8.15;;;;;;;;;;5046713;28;20076;-72
2024/01/23 09:29:55;;;;;;;31.08;6.20;;;;;;;;;;5029021;28;20214;-73
2024/01/23 09:32:20;;;;;;;34.08;7.35;;;32.30;1.00;;;;;;5030843;28;20040;-72
2024/01/23 09:34:47;;;;;;;45.55;8.73;;;;;;;;;;5048110;28;20041;-72
2024/01/23 09:37:14;;;;;;;38.65;7.65;;;;;;;;;;5046215;28;20124;-72
2024/01/23 09:39:41;;;;;;;36.47;7.60;;;;;;;;;;5049565;28;20068;-72
2024/01/23 09:42:10;;;;;;;37.85;6.60;;;31.80;1.00;;;;;;5050284;28;20049;-72
2024/01/23 09:44:36;;;;;;;29.42;6.18;;;32.40;1.00;;;;;;5033368;28;20107;-72
2024/01/23 09:47:03;;;;;;;35.90;7.93;;;32.00;1.00;;;;;;5049103;28;20084;-72
2024/01/23 09:49:30;;;;;;;44.78;9.80;;;32.30;1.00;;;;;;5049313;28;20504;-72
2024/01/23 09:52:02;;;;;;;48.20;8.82;;;32.40;1.00;;;;;;5049735;28;20716;-70
2024/01/23 09:54:30;;;;;;;48.53;7.75;;;32.20;1.00;;;;;;5050042;28;20634;-72
2024/01/23 09:56:57;;;;;;;40.22;7.22;;;;;;;;;;5032417;28;20705;-72
2024/01/23 09:59:23;;;;;;;34.08;6.55;;;;;;;;;;5049642;28;20033;-72
2024/01/23 10:01:48;;;;;;;45.20;7.57;;;32.40;1.00;;;;;;5049990;28;20099;-73
2024/01/23 10:04:17;;;;;;;43.65;7.10;;;32.40;1.00;;;;;;5049733;28;20496;-73
2024/01/23 10:06:43;;;;;;;41.63;7.97;;;32.50;1.00;;;;;;5049097;28;20082;-72
2024/01/23 10:09:09;;;;;;;42.35;7.70;;;;;;;;;;5049482;28;20045;-72
2024/01/23 10:11:35;;;;;;;43.03;7.63;;;32.50;1.00;;;;;;5049465;28;20440;-73
2024/01/23 10:14:02;;;;;;;38.55;7.80;;;;;;;;;;5049922;28;20558;-71
2024/01/23 10:16:28;;;;;;;32.30;6.97;;;;;;;;;;5048926;28;20041;-74
2024/01/23 10:18:54;;;;;;;37.65;7.30;;;32.60;1.00;;;;;;5049739;28;20426;-73
2024/01/23 10:21:21;;;;;;;33.15;7.25;;;32.40;1.00;;;;;;5049488;28;20036;-72
2024/01/23 10:23:51;;;;;;;41.60;7.55;;;32.30;1.00;;;;;;5051255;28;20106;-71
2024/01/23 10:26:18;;;;;;;44.80;6.85;;;;;;;;;;5052597;28;20041;-73
2024/01/23 10:28:44;;;;;;;35.22;6.30;;;;;;;;;;5036489;28;20067;-72
2024/01/23 10:31:10;;;;;;;41.50;7.45;;;;;;;;;;5051899;28;20127;-72
2024/01/23 10:33:39;;;;;;;39.47;6.95;;;32.40;1.00;;;;;;5036322;28;20040;-72
2024/01/23 10:36:05;;;;;;;40.22;8.15;;;32.70;1.00;;;;;;5052748;28;20459;-72
2024/01/23 10:38:37;;;;;;;38.60;5.68;;;32.70;1.00;;;;;;5054018;28;20531;-72
2024/01/23 10:41:07;;;;;;;36.70;6.65;;;32.60;1.00;;;;;;5053291;28;20041;-72
2024/01/23 10:43:34;;;;;;;33.53;7.45;;;;;;;;;;5053949;28;20064;-72
2024/01/23 10:46:02;;;;;;;31.17;5.78;;;32.70;1.00;;;;;;5051925;28;20045;-72
2024/01/23 10:48:30;;;;;;;40.47;6.70;;;;;;;;;;5052272;28;20037;-72
2024/01/23 10:51:03;;;;;;;40.20;7.20;;;32.60;1.00;;;;;;5052095;28;20045;-70
2024/01/23 10:53:36;;;;;;;37.15;6.65;;;32.70;1.00;;;;;;5049031;28;20152;-72
2024/01/23 10:56:04;;;;;;;42.53;6.72;;;32.60;1.00;;;;;;5035414;28;20079;-72
2024/01/23 10:58:35;;;;;;;36.80;5.78;;;32.70;1.00;;;;;;5052586;28;20029;-73
2024/01/23 11:01:03;;;;;;;29.42;6.22;;;32.70;1.00;;;;;;5052548;28;20045;-73
2024/01/23 11:03:30;;;;;;;28.15;5.07;;;;;;;;;;5052040;28;20044;-73
2024/01/23 11:06:08;;;;;;;35.35;6.30;;;32.80;1.00;;;;;;5051959;28;20052;-73
2024/01/23 11:08:59;;;;;;;36.38;6.53;;;32.80;1.00;;;;;;5033103;28;20044;-73
2024/01/23 11:11:32;;;;;;;32.95;6.75;;;32.60;1.00;;;;;;5051112;28;20053;-73
2024/01/23 11:14:10;;;;;;;25.85;5.80;;;32.90;1.00;;;;;;5051792;28;20033;-73
2024/01/23 11:16:36;;;;;;;26.83;6.30;;;;;;;;;;5051601;28;20029;-74
2024/01/23 11:19:02;;;;;;;31.48;6.60;;;;;;;;;;5051357;28;20037;-73
2024/01/23 11:21:28;;;;;;;32.03;6.22;;;;;;;;;;5052351;28;20049;-71
2024/01/23 11:24:03;;;;;;;31.17;5.72;;;32.90;1.00;;;;;;5052265;28;20556;-71
2024/01/23 11:26:29;;;;;;;36.60;6.63;;;;;;;;;;5051775;28;20041;-71
2024/01/23 11:29:07;;;;;;;32.95;7.50;;;32.90;1.00;;;;;;5046739;28;20051;-73
2024/01/23 11:31:39;;;;;;;29.65;5.63;;;32.80;1.00;;;;;;5049411;28;20041;-72
2024/01/23 11:34:22;;;;;;;29.08;6.07;;;32.80;1.00;;;;;;5049075;28;20401;-72
2024/01/23 11:36:48;;;;;;;;;;;32.90;1.00;;;;;;5049178;28;20033;-72
2024/01/23 11:39:27;;;;;;;30.70;5.78;;;32.60;1.00;;;;;;5032821;28;19927;-72
2024/01/23 11:41:55;;;;;;;41.17;6.93;;;32.90;1.00;;;;;;5049392;28;20350;-72
2024/01/23 11:44:21;;;;;;;28.20;5.63;;;32.80;1.00;;;;;;5048558;28;20095;-70
2024/01/23 11:46:48;;;;;;;31.88;6.68;;;32.60;1.00;;;;;;5047885;28;20060;-72
2024/01/23 11:49:14;;;;;;;36.00;6.13;;;32.80;1.00;;;;;;5048880;28;20128;-73
2024/01/23 11:51:40;;;;;;;30.83;5.13;;;;;;;;;;5050086;28;20130;-72
2024/01/23 11:54:09;;;;;;;28.88;5.75;;;32.90;1.00;;;;;;5047135;28;20059;-74
2024/01/23 11:56:36;;;;;;;28.83;6.13;;;;;;;;;;5025272;28;20045;-73
2024/01/23 11:59:02;;;;;;;32.83;7.18;;;;;;;;;;5045948;28;20060;-72
2024/01/23 12:01:30;;;;;;;29.40;6.07;;;32.90;1.00;;;;;;5031975;28;20115;-71
2024/01/23 12:03:56;;;;;;;36.65;6.60;;;;;;;;;;5028301;28;20051;-71
2024/01/23 12:06:22;;;;;;;30.92;6.45;;;;;;;;;;5040536;28;20045;-73
2024/01/23 12:08:48;;;;;;;34.60;5.57;;;32.70;1.00;;;;;;5042747;28;20505;-72
2024/01/23 12:11:15;;;;;;;38.30;6.88;;;;;;;;;;5043456;28;20175;-71
2024/01/23 12:13:45;;;;;;;31.48;6.25;;;32.70;1.00;;;;;;5039105;28;20501;-74
2024/01/23 12:16:11;;;;;;;35.17;5.75;;;;;;;;;;5040826;28;20573;-69
2024/01/23 12:18:37;;;;;;;24.90;5.45;;;32.80;1.00;;;;;;5031776;28;20400;-73
2024/01/23 12:21:04;;;;;;;37.90;6.93;;;32.90;1.00;;;;;;5051330;28;20033;-72
2024/01/23 12:23:30;;;;;;;34.42;7.38;;;;;;;;;;5051363;28;20126;-74
2024/01/23 12:25:57;;;;;;;34.42;6.47;;;32.90;1.00;;;;;;5034399;28;20396;-73
2024/01/23 12:28:23;;;;;;;36.00;5.50;;;32.80;1.00;;;;;;5051570;28;20068;-72
2024/01/23 12:30:49;;;;;;;28.00;4.70;;;32.80;1.00;;;;;;5034401;28;20052;-72
2024/01/23 12:33:16;;;;;;;25.55;5.53;;;32.70;1.00;;;;;;5057953;22;20443;-73
2024/01/23 12:35:46;;;;;;;32.30;5.82;;;32.80;1.00;;;;;;5071452;28;20033;-73
2024/01/23 12:38:20;;;;;;;34.60;5.93;;;32.90;1.00;;;;;;5054595;28;20043;-73
2024/01/23 12:40:47;;;;;;;27.33;5.43;;;32.90;1.00;;;;;;5071539;28;20036;-73
2024/01/23 12:43:14;;;;;;;23.15;5.35;;;32.80;1.00;;;;;;5054524;28;20032;-73
2024/01/23 12:45:39;;;;;;;29.42;5.43;;;32.80;1.00;;;;;;5053715;28;20070;-73
2024/01/23 12:48:06;;;;;;;30.10;7.10;;;32.80;1.00;;;;;;5071049;28;20054;-73
2024/01/23 12:50:32;;;;;;;27.38;5.55;;;;;;;;;;5071052;28;20041;-74
2024/01/23 12:52:59;;;;;;;22.05;4.82;;;32.90;1.00;;;;;;5054405;28;20131;-73
2024/01/23 12:55:28;;;;;;;21.92;5.40;;;;;;;;;;5070772;28;20044;-73
2024/01/23 12:57:54;;;;;;;33.08;6.00;;;;;;;;;;5070282;28;20458;-73
2024/01/23 13:00:20;;;;;;;28.15;5.57;;;32.70;1.00;;;;;;5070903;28;20450;-73
2024/01/23 13:02:46;;;;;;;34.42;7.15;;;32.80;1.00;;;;;;5070611;28;20115;-74
2024/01/23 13:05:14;;;;;;;36.00;5.57;;;33.00;1.00;;;;;;5070315;28;20365;-74
2024/01/23 13:07:40;;;;;;;28.60;7.30;;;;;;;;;;5052858;28;20389;-74
2024/01/23 13:10:07;;;;;;;36.30;5.85;;;32.80;1.00;;;;;;5067306;28;20071;-74
2024/01/23 13:12:35;;;;;;;26.02;5.10;;;32.80;1.00;;;;;;5069980;28;20047;-73
2024/01/23 13:15:01;;;;;;;27.65;4.80;;;32.80;1.00;;;;;;5070612;28;20037;-73
2024/01/23 13:17:26;;;;;;;30.73;6.88;;;32.80;1.00;;;;;;5069707;28;20047;-73
2024/01/23 13:19:52;;;;;;;36.25;7.20;;;32.80;1.00;;;;;;5070501;28;20036;-73
2024/01/23 13:22:19;;;;;;;31.63;5.40;;;;;;;;;;5070416;28;20063;-73
2024/01/23 13:24:45;;;;;;;29.85;6.35;;;;;;;;;;5070303;28;20070;-73
2024/01/23 13:27:11;;;;;;;38.45;6.40;;;;;;;;;;5069597;28;20047;-73
2024/01/23 13:29:37;;;;;;;37.13;6.63;;;32.90;1.00;;;;;;5070149;28;20040;-73
2024/01/23 13:32:04;;;;;;;30.20;5.50;;;32.70;1.00;;;;;;5070165;28;20032;-73
2024/01/23 13:34:32;;;;;;;43.72;8.07;;;32.80;1.00;;;;;;5069964;28;20036;-73
2024/01/23 13:36:58;;;;;;;29.17;5.20;;;;;;;;;;5053015;28;20033;-73
2024/01/23 13:39:24;;;;;;;25.55;5.05;;;32.70;1.00;;;;;;5069912;28;20500;-73
2024/01/23 13:41:50;;;;;;;31.33;6.13;;;32.90;1.00;;;;;;5070009;28;20071;-73
2024/01/23 13:44:16;;;;;;;24.55;5.50;;;;;;;;;;5053516;28;20093;-73
2024/01/23 13:46:42;;;;;;;33.50;5.53;;;32.70;1.00;;;;;;5069227;28;20041;-73
2024/01/23 13:49:08;;;;;;;32.92;5.43;;;;;;;;;;5070235;28;20393;-73
2024/01/23 13:51:34;;;;;;;27.98;5.38;;;;;;;;;;5052619;28;20037;-73